Time;durP1;ratioP1;P1;durP2;ratioP2;P2;SDS_P1;SDS_P2;PMS_P1;PMS_P2;Temp;Humidity;BMP_temperature;BMP_pressure;BME280_temperature;BME280_humidity;BME280_pressure;Samples;Min_cycle;Max_cycle;Signal;HPM_P1;HPM_P2
2021/05/09 00:01:22;;;;;;;1.58;0.80;;;23.80;40.90;;;;;;5037165;28;20040;-65
2021/05/09 00:03:48;;;;;;;2.60;0.80;;;23.80;40.90;;;;;;5040364;28;20141;-63
2021/05/09 00:06:14;;;;;;;1.38;0.77;;;23.80;40.90;;;;;;5043738;28;20436;-66
2021/05/09 00:08:40;;;;;;;1.63;0.70;;;23.80;40.90;;;;;;5025355;28;20033;-64
2021/05/09 00:11:06;;;;;;;1.63;0.80;;;23.80;40.90;;;;;;5032027;28;20039;-64
2021/05/09 00:13:32;;;;;;;3.30;0.70;;;23.80;40.90;;;;;;5045408;28;20445;-65
2021/05/09 00:15:58;;;;;;;1.85;0.70;;;23.90;41.00;;;;;;5045733;28;20102;-63
2021/05/09 00:18:25;;;;;;;1.15;0.70;;;23.80;40.90;;;;;;5042660;28;20116;-62
2021/05/09 00:20:50;;;;;;;3.03;0.95;;;23.90;41.00;;;;;;5046232;28;20033;-64
2021/05/09 00:23:16;;;;;;;1.77;0.73;;;23.90;41.00;;;;;;5038410;28;20040;-66
2021/05/09 00:25:42;;;;;;;1.27;0.68;;;23.90;40.90;;;;;;5046488;28;20025;-64
2021/05/09 00:28:07;;;;;;;2.15;1.02;;;23.90;41.00;;;;;;5044723;28;20040;-62
2021/05/09 00:30:33;;;;;;;1.38;0.70;;;23.80;40.90;;;;;;5042938;28;20094;-66
2021/05/09 00:32:58;;;;;;;1.27;0.70;;;23.90;41.00;;;;;;5035954;28;20091;-63
2021/05/09 00:35:24;;;;;;;2.13;0.90;;;23.90;40.90;;;;;;5039951;28;20182;-62
2021/05/09 00:37:50;;;;;;;2.00;0.70;;;23.90;40.90;;;;;;5037074;28;20060;-65
2021/05/09 00:40:16;;;;;;;0.93;0.63;;;23.80;40.90;;;;;;5033177;28;20031;-65
2021/05/09 00:42:42;;;;;;;2.08;0.90;;;23.90;40.90;;;;;;5036434;28;20058;-66
2021/05/09 00:45:08;;;;;;;1.10;0.60;;;23.90;40.90;;;;;;5043102;28;20076;-64
2021/05/09 00:47:34;;;;;;;1.77;0.70;;;23.90;40.80;;;;;;5043690;28;20138;-65
2021/05/09 00:50:00;;;;;;;0.85;0.60;;;23.80;40.80;;;;;;5038996;28;20045;-65
2021/05/09 00:52:26;;;;;;;1.50;1.00;;;23.90;40.80;;;;;;5036498;28;20025;-63
2021/05/09 00:54:57;;;;;;;1.02;0.70;;;23.90;40.80;;;;;;5040147;28;20691;-61
2021/05/09 00:57:25;;;;;;;1.42;0.70;;;23.90;40.70;;;;;;5041139;28;20021;-65
2021/05/09 00:59:55;;;;;;;1.25;0.70;;;23.90;40.70;;;;;;5035319;28;20586;-67
2021/05/09 01:02:21;;;;;;;1.23;0.70;;;23.90;40.70;;;;;;5038477;28;20751;-64
2021/05/09 01:04:47;;;;;;;0.90;0.60;;;23.90;40.70;;;;;;5037743;28;20079;-64
2021/05/09 01:07:14;;;;;;;1.00;0.60;;;23.90;40.70;;;;;;5037557;28;20056;-64
2021/05/09 01:09:41;;;;;;;1.08;0.70;;;23.90;40.60;;;;;;5036888;28;20040;-63
2021/05/09 01:12:13;;;;;;;1.20;0.70;;;23.90;40.60;;;;;;5039033;28;20017;-65
2021/05/09 01:14:39;;;;;;;1.98;0.60;;;23.90;40.60;;;;;;5036850;28;20025;-64
2021/05/09 01:17:06;;;;;;;1.25;0.60;;;23.90;40.50;;;;;;5040729;28;20021;-65
2021/05/09 01:19:32;;;;;;;1.10;0.60;;;23.90;40.70;;;;;;5038232;28;20033;-65
2021/05/09 01:21:58;;;;;;;1.35;0.70;;;23.90;40.60;;;;;;5036732;28;20254;-63
2021/05/09 01:24:23;;;;;;;1.17;0.80;;;23.90;40.70;;;;;;5047211;28;20235;-63
2021/05/09 01:26:49;;;;;;;1.00;0.70;;;23.80;40.60;;;;;;5048462;28;20140;-62
2021/05/09 01:29:15;;;;;;;1.02;0.70;;;23.80;40.60;;;;;;5045295;28;20636;-65
2021/05/09 01:31:46;;;;;;;1.35;0.80;;;23.80;40.70;;;;;;5042970;28;20055;-66
2021/05/09 01:34:12;;;;;;;1.63;0.70;;;23.70;40.60;;;;;;5043525;28;20036;-63
2021/05/09 01:36:38;;;;;;;0.68;0.60;;;23.70;40.60;;;;;;5039879;28;20037;-64
2021/05/09 01:39:05;;;;;;;0.95;0.57;;;23.70;40.70;;;;;;5046896;28;20104;-63
2021/05/09 01:41:31;;;;;;;0.95;0.65;;;23.70;40.70;;;;;;5046450;28;20036;-65
2021/05/09 01:43:57;;;;;;;1.38;0.60;;;23.70;40.70;;;;;;5045193;28;20029;-64
2021/05/09 01:46:23;;;;;;;1.95;0.73;;;23.70;40.80;;;;;;5040540;28;20018;-63
2021/05/09 01:48:48;;;;;;;1.58;0.68;;;23.60;40.70;;;;;;5046184;28;20123;-63
2021/05/09 01:51:14;;;;;;;1.48;0.80;;;23.60;40.80;;;;;;5043766;28;20034;-62
2021/05/09 01:53:40;;;;;;;1.27;0.70;;;23.60;41.30;;;;;;5042758;28;20036;-65
2021/05/09 01:56:05;;;;;;;1.48;0.70;;;23.60;40.80;;;;;;5043547;28;20029;-64
2021/05/09 01:58:31;;;;;;;1.40;0.60;;;23.60;40.80;;;;;;5046856;28;20441;-66
2021/05/09 02:00:57;;;;;;;0.85;0.70;;;23.50;40.70;;;;;;5035680;28;20038;-63
2021/05/09 02:03:22;;;;;;;1.20;0.70;;;23.50;40.70;;;;;;5034786;28;20033;-67
2021/05/09 02:05:48;;;;;;;1.20;0.63;;;23.40;40.70;;;;;;5030266;28;20036;-66
2021/05/09 02:08:14;;;;;;;1.13;0.70;;;23.40;40.70;;;;;;5046336;28;20022;-63
2021/05/09 02:10:39;;;;;;;1.02;0.73;;;23.40;40.80;;;;;;5039651;28;20400;-64
2021/05/09 02:13:05;;;;;;;1.52;0.60;;;23.40;40.80;;;;;;5037775;28;20084;-64
2021/05/09 02:15:31;;;;;;;0.88;0.65;;;23.40;40.80;;;;;;5027311;28;20876;-66
2021/05/09 02:17:57;;;;;;;1.15;0.70;;;23.40;40.80;;;;;;5031842;28;20029;-62
2021/05/09 02:20:22;;;;;;;1.50;0.70;;;23.40;40.80;;;;;;5041239;28;20064;-63
2021/05/09 02:22:48;;;;;;;1.02;0.60;;;23.30;40.80;;;;;;5044416;28;20060;-65
2021/05/09 02:25:14;;;;;;;1.13;0.70;;;23.30;40.80;;;;;;5045608;28;20394;-63
2021/05/09 02:27:40;;;;;;;0.50;0.50;;;23.30;40.80;;;;;;5042401;28;21177;-66
2021/05/09 02:30:07;;;;;;;0.82;0.65;;;23.30;40.80;;;;;;5024509;28;20060;-65
2021/05/09 02:32:33;;;;;;;0.80;0.60;;;23.30;41.40;;;;;;5042969;28;20151;-64
2021/05/09 02:34:58;;;;;;;1.40;0.68;;;23.20;40.80;;;;;;5043614;28;20113;-64
2021/05/09 02:37:24;;;;;;;0.60;0.60;;;23.20;40.80;;;;;;5046351;28;20064;-63
2021/05/09 02:39:50;;;;;;;1.98;0.70;;;23.20;40.80;;;;;;5045841;28;20306;-64
2021/05/09 02:42:15;;;;;;;1.30;0.75;;;23.20;40.80;;;;;;5042226;28;20130;-62
2021/05/09 02:44:41;;;;;;;0.77;0.60;;;23.20;40.80;;;;;;5044914;28;20374;-63
2021/05/09 02:47:07;;;;;;;1.00;0.60;;;23.10;40.80;;;;;;5046463;28;20135;-63
2021/05/09 02:49:33;;;;;;;1.30;0.80;;;23.10;40.80;;;;;;5043555;28;20043;-63
2021/05/09 02:52:00;;;;;;;0.85;0.70;;;23.10;40.80;;;;;;5038878;28;20029;-67
2021/05/09 02:54:26;;;;;;;1.05;0.60;;;23.10;40.80;;;;;;5044218;28;20021;-63
2021/05/09 02:56:52;;;;;;;0.85;0.60;;;23.10;40.80;;;;;;5044839;28;20032;-64
2021/05/09 02:59:17;;;;;;;1.13;0.60;;;23.00;40.80;;;;;;5027072;28;20033;-63
2021/05/09 03:01:43;;;;;;;0.95;0.70;;;23.00;40.80;;;;;;5033166;28;20035;-66
2021/05/09 03:04:08;;;;;;;0.88;0.70;;;23.00;40.80;;;;;;5032021;28;20052;-67
2021/05/09 03:06:34;;;;;;;0.88;0.60;;;23.00;40.80;;;;;;5044390;28;20091;-64
2021/05/09 03:09:00;;;;;;;1.58;0.80;;;23.00;40.90;;;;;;5034294;28;20017;-63
2021/05/09 03:11:28;;;;;;;0.90;0.70;;;23.00;40.90;;;;;;5040414;28;20333;-64
2021/05/09 03:13:55;;;;;;;0.85;0.63;;;23.00;41.00;;;;;;5036865;28;20102;-63
2021/05/09 03:16:20;;;;;;;0.98;0.60;;;23.00;40.90;;;;;;5036882;28;20142;-63
2021/05/09 03:18:46;;;;;;;0.65;0.60;;;22.90;40.90;;;;;;5045657;28;20096;-64
2021/05/09 03:21:12;;;;;;;0.68;0.60;;;22.90;40.90;;;;;;5030854;28;20021;-64
2021/05/09 03:23:37;;;;;;;1.13;0.65;;;22.80;40.90;;;;;;5038780;28;20074;-63
2021/05/09 03:26:03;;;;;;;0.60;0.60;;;22.80;40.90;;;;;;5041312;28;20031;-64
2021/05/09 03:28:28;;;;;;;0.90;0.57;;;22.80;41.00;;;;;;5046759;28;20421;-64
2021/05/09 03:30:54;;;;;;;1.13;0.70;;;22.80;41.00;;;;;;5047467;28;20043;-63
2021/05/09 03:33:19;;;;;;;0.93;0.63;;;22.80;41.00;;;;;;5046849;28;20028;-66
2021/05/09 03:35:45;;;;;;;0.95;0.60;;;22.80;41.00;;;;;;5042741;28;20028;-64
2021/05/09 03:38:11;;;;;;;0.88;0.60;;;22.70;41.00;;;;;;5049898;28;20845;-63
2021/05/09 03:40:40;;;;;;;1.48;0.70;;;22.70;41.50;;;;;;5047828;28;20135;-65
2021/05/09 03:43:05;;;;;;;0.93;0.60;;;22.70;41.00;;;;;;5045042;28;20148;-66
2021/05/09 03:45:31;;;;;;;0.60;0.60;;;22.70;41.00;;;;;;5035434;28;20057;-64
2021/05/09 03:47:57;;;;;;;0.70;0.50;;;22.70;41.00;;;;;;5028580;28;20126;-63
2021/05/09 03:50:22;;;;;;;0.88;0.60;;;22.70;41.10;;;;;;5041490;28;20068;-64
2021/05/09 03:52:48;;;;;;;1.50;0.70;;;22.70;41.10;;;;;;5047887;28;20076;-63
2021/05/09 03:55:13;;;;;;;1.33;0.70;;;22.60;41.00;;;;;;5032087;28;20045;-64
2021/05/09 03:57:39;;;;;;;1.05;0.70;;;22.60;41.00;;;;;;5047422;28;20528;-64
2021/05/09 04:00:07;;;;;;;1.75;0.65;;;22.60;41.00;;;;;;5048955;28;20098;-65
2021/05/09 04:02:33;;;;;;;0.88;0.70;;;22.60;41.10;;;;;;5033347;28;20041;-63
2021/05/09 04:04:58;;;;;;;0.73;0.60;;;22.60;41.10;;;;;;5036903;28;20055;-64
2021/05/09 04:07:24;;;;;;;0.70;0.60;;;22.60;41.10;;;;;;5045549;28;20141;-63
2021/05/09 04:09:49;;;;;;;0.95;0.70;;;22.60;41.00;;;;;;5048651;28;20424;-64
2021/05/09 04:12:15;;;;;;;0.82;0.70;;;22.50;41.00;;;;;;5046105;28;20025;-67
2021/05/09 04:14:41;;;;;;;0.95;0.70;;;22.50;41.00;;;;;;5039880;28;20388;-65
2021/05/09 04:17:06;;;;;;;0.60;0.60;;;22.50;41.10;;;;;;5041586;28;20043;-65
2021/05/09 04:19:32;;;;;;;0.80;0.50;;;22.50;41.10;;;;;;5043760;28;20341;-63
2021/05/09 04:21:58;;;;;;;1.65;0.73;;;22.50;41.10;;;;;;5046580;28;20037;-63
2021/05/09 04:24:23;;;;;;;1.35;0.75;;;22.50;41.10;;;;;;5046822;28;20032;-63
2021/05/09 04:26:49;;;;;;;1.08;0.60;;;22.50;41.10;;;;;;5042666;28;20075;-65
2021/05/09 04:29:16;;;;;;;0.77;0.60;;;22.50;41.10;;;;;;5043783;28;20041;-64
2021/05/09 04:31:41;;;;;;;0.73;0.70;;;22.40;41.10;;;;;;5040621;28;20036;-64
2021/05/09 04:34:07;;;;;;;1.08;0.70;;;22.40;41.10;;;;;;5043326;28;20043;-64
2021/05/09 04:36:33;;;;;;;0.68;0.57;;;22.40;41.10;;;;;;5041422;28;20036;-64
2021/05/09 04:38:58;;;;;;;1.38;0.70;;;22.40;41.10;;;;;;5036907;28;20025;-66
2021/05/09 04:41:24;;;;;;;0.63;0.60;;;22.30;41.10;;;;;;5044488;28;20052;-65
2021/05/09 04:43:50;;;;;;;0.98;0.68;;;22.40;41.10;;;;;;5046263;28;20036;-66
2021/05/09 04:46:15;;;;;;;1.40;0.77;;;22.30;41.10;;;;;;5045744;28;20397;-63
2021/05/09 04:48:41;;;;;;;1.05;0.70;;;22.30;41.10;;;;;;5037701;28;20535;-64
2021/05/09 04:51:06;;;;;;;0.88;0.65;;;22.30;41.10;;;;;;5026073;28;20033;-63
2021/05/09 04:53:35;;;;;;;0.93;0.63;;;22.30;41.10;;;;;;5044220;28;20352;-65
2021/05/09 04:56:08;;;;;;;1.55;0.70;;;22.30;41.10;;;;;;5045002;28;20029;-63
2021/05/09 04:58:41;;;;;;;0.75;0.70;;;22.30;41.10;;;;;;5036001;28;20052;-63
2021/05/09 05:01:09;;;;;;;0.55;0.50;;;22.30;41.10;;;;;;5037556;28;20110;-65
2021/05/09 05:03:35;;;;;;;0.88;0.68;;;22.20;41.10;;;;;;5039936;28;20028;-63
2021/05/09 05:06:01;;;;;;;0.98;0.70;;;22.20;41.30;;;;;;5030737;28;20399;-64
2021/05/09 05:08:28;;;;;;;0.75;0.60;;;22.20;41.20;;;;;;5041269;28;20021;-64
2021/05/09 05:10:54;;;;;;;0.82;0.65;;;22.20;41.20;;;;;;5030659;28;20028;-63
2021/05/09 05:13:28;;;;;;;0.70;0.60;;;22.20;41.20;;;;;;5046395;28;20025;-65
2021/05/09 05:15:55;;;;;;;1.17;0.80;;;22.20;41.20;;;;;;5042730;28;20231;-63
2021/05/09 05:18:22;;;;;;;1.45;0.60;;;22.20;41.20;;;;;;5039366;28;20028;-63
2021/05/09 05:20:48;;;;;;;0.98;0.60;;;22.10;41.20;;;;;;5034322;28;20115;-63
2021/05/09 05:23:14;;;;;;;1.17;0.80;;;22.10;41.20;;;;;;5044407;28;20033;-64
2021/05/09 05:25:40;;;;;;;1.13;0.70;;;22.10;41.20;;;;;;5032865;28;20040;-64
2021/05/09 05:28:06;;;;;;;0.80;0.60;;;22.10;41.30;;;;;;5042615;28;20029;-64
2021/05/09 05:30:33;;;;;;;1.15;0.70;;;22.10;41.30;;;;;;5043066;28;20360;-63
2021/05/09 05:32:59;;;;;;;1.08;0.70;;;22.10;41.30;;;;;;5035778;28;20525;-65
2021/05/09 05:35:25;;;;;;;0.90;0.70;;;22.10;41.30;;;;;;5022094;28;20033;-65
2021/05/09 05:37:52;;;;;;;1.38;0.70;;;22.10;41.30;;;;;;5030246;28;20059;-64
2021/05/09 05:40:18;;;;;;;1.15;0.70;;;22.10;41.30;;;;;;5041030;28;20128;-63
2021/05/09 05:42:44;;;;;;;1.10;0.77;;;22.10;41.30;;;;;;5036900;28;20125;-65
2021/05/09 05:45:10;;;;;;;0.80;0.70;;;22.00;41.30;;;;;;5031629;28;20033;-66
2021/05/09 05:47:36;;;;;;;0.60;0.60;;;22.00;41.30;;;;;;5041804;28;20153;-65
2021/05/09 05:50:02;;;;;;;0.70;0.70;;;22.00;41.30;;;;;;5028536;28;20486;-64
2021/05/09 05:52:27;;;;;;;0.60;0.60;;;22.00;41.30;;;;;;5036261;28;20143;-63
2021/05/09 05:54:54;;;;;;;1.13;0.75;;;22.00;41.30;;;;;;5028281;28;20389;-66
2021/05/09 05:57:19;;;;;;;0.90;0.70;;;22.00;41.30;;;;;;5044268;28;20033;-64
2021/05/09 05:59:45;;;;;;;0.63;0.60;;;22.00;41.30;;;;;;5046570;28;20045;-63
2021/05/09 06:02:11;;;;;;;0.65;0.60;;;22.00;41.30;;;;;;5040600;28;20610;-65
2021/05/09 06:04:39;;;;;;;0.70;0.60;;;22.00;41.40;;;;;;5036502;28;20053;-66
2021/05/09 06:07:06;;;;;;;0.63;0.50;;;22.00;41.40;;;;;;5044630;28;20025;-65
2021/05/09 06:09:32;;;;;;;0.60;0.60;;;22.00;41.40;;;;;;5047245;28;20420;-65
2021/05/09 06:11:57;;;;;;;0.90;0.70;;;22.00;41.40;;;;;;5046795;28;20064;-65
2021/05/09 06:14:23;;;;;;;0.47;0.47;;;21.90;41.40;;;;;;5041620;28;20040;-66
2021/05/09 06:16:48;;;;;;;1.50;0.70;;;21.90;41.40;;;;;;5040847;28;20372;-64
2021/05/09 06:19:14;;;;;;;1.10;0.73;;;21.90;41.40;;;;;;5045771;28;20040;-65
2021/05/09 06:21:40;;;;;;;0.70;0.68;;;21.90;41.50;;;;;;5037546;28;20419;-66
2021/05/09 06:24:06;;;;;;;0.63;0.63;;;21.90;41.50;;;;;;5031577;28;20026;-66
2021/05/09 06:26:31;;;;;;;1.15;0.70;;;21.90;41.50;;;;;;5033551;28;20083;-64
2021/05/09 06:28:57;;;;;;;1.05;0.75;;;21.90;41.50;;;;;;5041198;28;20029;-65
2021/05/09 06:31:23;;;;;;;0.82;0.60;;;21.90;41.50;;;;;;5040176;28;20045;-63
2021/05/09 06:33:48;;;;;;;0.93;0.70;;;21.90;41.50;;;;;;5037336;28;20060;-64
2021/05/09 06:36:14;;;;;;;1.10;0.60;;;21.90;41.50;;;;;;5039766;28;20041;-63
2021/05/09 06:38:40;;;;;;;0.80;0.70;;;21.90;41.50;;;;;;5030028;28;20072;-65
2021/05/09 06:41:06;;;;;;;0.90;0.60;;;21.90;41.50;;;;;;5044502;28;20025;-64
2021/05/09 06:43:31;;;;;;;0.65;0.60;;;21.90;41.50;;;;;;5028973;28;20025;-65
2021/05/09 06:45:57;;;;;;;0.57;0.50;;;21.90;41.50;;;;;;5039320;28;20027;-64
2021/05/09 06:48:24;;;;;;;0.60;0.60;;;21.80;41.40;;;;;;5032745;28;20052;-64
2021/05/09 06:50:49;;;;;;;1.20;0.70;;;21.80;41.50;;;;;;5039790;28;20029;-65
2021/05/09 06:53:15;;;;;;;1.50;0.80;;;21.80;41.50;;;;;;5032303;28;20102;-64
2021/05/09 06:55:43;;;;;;;0.70;0.70;;;21.80;41.50;;;;;;5036387;28;20389;-64
2021/05/09 06:58:10;;;;;;;0.80;0.70;;;21.80;41.50;;;;;;5040803;28;20032;-65
2021/05/09 07:00:35;;;;;;;1.30;0.80;;;21.80;41.50;;;;;;5034755;28;20039;-66
2021/05/09 07:03:01;;;;;;;1.05;0.70;;;21.80;41.50;;;;;;5036500;28;20413;-63
2021/05/09 07:05:27;;;;;;;1.05;0.65;;;21.80;41.50;;;;;;5026699;28;20120;-65
2021/05/09 07:07:55;;;;;;;1.02;0.93;;;21.80;41.50;;;;;;5025068;28;20061;-63
2021/05/09 07:10:22;;;;;;;1.95;0.80;;;21.70;41.50;;;;;;5041326;28;20033;-64
2021/05/09 07:12:49;;;;;;;1.35;0.80;;;21.80;41.50;;;;;;5041755;28;20098;-66
2021/05/09 07:15:20;;;;;;;0.90;0.73;;;21.80;41.60;;;;;;5036961;28;20025;-65
2021/05/09 07:18:06;;;;;;;0.80;0.70;;;21.70;41.50;;;;;;5044150;28;20029;-66
2021/05/09 07:20:34;;;;;;;0.95;0.70;;;21.80;41.60;;;;;;5034217;28;20025;-62
2021/05/09 07:23:00;;;;;;;0.98;0.70;;;21.70;41.60;;;;;;5039501;28;20064;-65
2021/05/09 07:25:26;;;;;;;0.82;0.70;;;21.70;41.50;;;;;;5043067;28;20053;-64
2021/05/09 07:28:14;;;;;;;1.08;0.70;;;21.70;41.50;;;;;;5043525;28;20130;-64
2021/05/09 07:30:42;;;;;;;1.00;0.60;;;21.70;41.60;;;;;;5041536;28;20531;-64
2021/05/09 07:33:09;;;;;;;1.42;0.90;;;21.70;41.50;;;;;;5040828;28;20075;-63
2021/05/09 07:35:35;;;;;;;1.42;0.80;;;21.70;41.60;;;;;;5041540;28;20143;-65
2021/05/09 07:38:05;;;;;;;2.38;0.77;;;21.70;41.60;;;;;;5042234;28;20423;-65
2021/05/09 07:40:31;;;;;;;0.82;0.70;;;21.70;41.60;;;;;;5042891;28;20029;-65
2021/05/09 07:42:57;;;;;;;0.70;0.70;;;21.70;41.60;;;;;;5043176;28;20100;-63
2021/05/09 07:45:23;;;;;;;1.10;0.70;;;21.70;41.60;;;;;;5041984;28;20029;-66
2021/05/09 07:47:50;;;;;;;1.08;0.70;;;21.70;41.60;;;;;;5041294;28;20098;-64
2021/05/09 07:50:18;;;;;;;1.00;0.68;;;21.70;41.60;;;;;;5040193;28;20132;-64
2021/05/09 07:52:45;;;;;;;1.80;0.75;;;21.70;41.60;;;;;;5039479;28;20021;-64
2021/05/09 07:55:11;;;;;;;0.93;0.70;;;21.70;41.60;;;;;;5042726;28;20117;-63
2021/05/09 07:57:37;;;;;;;1.00;0.70;;;21.70;41.70;;;;;;5026383;28;20030;-65
2021/05/09 08:00:11;;;;;;;1.85;0.70;;;21.70;41.70;;;;;;5033435;28;20499;-65
2021/05/09 08:02:37;;;;;;;0.98;0.70;;;21.70;41.80;;;;;;5032641;28;20611;-65
2021/05/09 08:05:03;;;;;;;2.38;0.80;;;21.70;41.80;;;;;;5040598;28;20105;-66
2021/05/09 08:07:28;;;;;;;1.00;0.80;;;21.70;41.80;;;;;;5040319;28;20056;-64
2021/05/09 08:09:54;;;;;;;1.40;0.70;;;21.70;41.90;;;;;;5042523;28;20433;-64
2021/05/09 08:12:20;;;;;;;1.67;0.80;;;21.70;41.90;;;;;;5043520;28;20091;-64
2021/05/09 08:14:45;;;;;;;1.33;0.70;;;21.70;41.90;;;;;;5047687;28;20033;-64
2021/05/09 08:17:11;;;;;;;2.03;0.80;;;21.70;42.10;;;;;;5042576;28;20441;-63
2021/05/09 08:19:37;;;;;;;2.45;0.90;;;21.70;42.00;;;;;;5038393;28;20067;-65
2021/05/09 08:22:03;;;;;;;1.48;0.80;;;21.70;42.10;;;;;;5036530;28;20515;-63
2021/05/09 08:24:30;;;;;;;2.55;0.90;;;21.70;42.20;;;;;;5038451;28;20037;-64
2021/05/09 08:26:55;;;;;;;1.40;0.90;;;21.70;42.20;;;;;;5045731;28;20112;-64
2021/05/09 08:29:21;;;;;;;1.50;0.80;;;21.70;42.30;;;;;;5039037;28;20048;-63
2021/05/09 08:31:47;;;;;;;2.55;0.90;;;21.70;42.30;;;;;;5033918;28;20045;-65
2021/05/09 08:34:12;;;;;;;1.77;0.88;;;21.70;42.40;;;;;;5031047;28;20124;-65
2021/05/09 08:36:38;;;;;;;1.55;0.80;;;21.70;42.30;;;;;;5039112;28;20037;-64
2021/05/09 08:39:04;;;;;;;1.85;0.90;;;21.70;42.40;;;;;;5037865;28;20029;-64
2021/05/09 08:41:29;;;;;;;1.52;0.80;;;21.70;42.90;;;;;;5039073;28;20032;-64
2021/05/09 08:43:55;;;;;;;1.80;0.90;;;21.70;42.40;;;;;;5036967;28;20033;-65
2021/05/09 08:46:22;;;;;;;2.03;1.00;;;21.70;42.50;;;;;;5026650;28;20518;-64
2021/05/09 08:48:54;;;;;;;2.90;1.00;;;21.70;42.50;;;;;;5042179;28;20515;-65
2021/05/09 08:51:19;;;;;;;1.30;0.80;;;21.60;42.50;;;;;;5043693;28;20161;-63
2021/05/09 08:53:48;;;;;;;2.58;0.80;;;21.60;42.50;;;;;;5043701;28;20029;-66
2021/05/09 08:56:14;;;;;;;1.67;0.90;;;21.60;42.50;;;;;;5043341;28;20021;-65
2021/05/09 08:58:39;;;;;;;2.20;0.98;;;21.70;42.50;;;;;;5040473;28;20032;-64
2021/05/09 09:01:05;;;;;;;1.88;0.90;;;21.70;42.50;;;;;;5038457;28;20428;-65
2021/05/09 09:03:33;;;;;;;2.33;0.90;;;21.70;43.10;;;;;;5045682;28;20029;-65
2021/05/09 09:06:00;;;;;;;1.52;0.80;;;21.70;42.60;;;;;;5043634;28;20080;-65
2021/05/09 09:08:26;;;;;;;2.05;0.90;;;21.70;42.60;;;;;;5043424;28;20021;-63
2021/05/09 09:10:53;;;;;;;3.15;1.10;;;21.70;42.60;;;;;;5046209;28;20520;-65
2021/05/09 09:13:23;;;;;;;1.83;0.77;;;21.70;42.60;;;;;;5044554;28;20586;-66
2021/05/09 09:16:05;;;;;;;2.92;1.02;;;21.70;42.60;;;;;;5043657;28;20479;-65
2021/05/09 09:18:39;;;;;;;3.38;0.80;;;21.70;42.60;;;;;;5037897;28;20421;-64
2021/05/09 09:21:31;;;;;;;1.70;0.90;;;21.70;42.60;;;;;;5042543;28;20137;-63
2021/05/09 09:24:06;;;;;;;2.47;0.90;;;21.70;42.60;;;;;;5025740;28;20038;-62
2021/05/09 09:26:49;;;;;;;2.83;0.90;;;21.70;42.50;;;;;;5040819;28;20037;-61
2021/05/09 09:29:34;;;;;;;2.58;0.80;;;21.70;42.50;;;;;;5034415;28;20040;-64
2021/05/09 09:32:06;;;;;;;1.60;0.90;;;21.70;42.50;;;;;;5044548;28;20043;-64
2021/05/09 09:34:42;;;;;;;1.75;1.02;;;21.70;42.50;;;;;;5034073;28;20025;-64
2021/05/09 09:37:09;;;;;;;1.90;1.08;;;21.70;42.50;;;;;;5045313;28;20082;-63
2021/05/09 09:39:58;;;;;;;2.72;1.02;;;21.70;42.50;;;;;;5045992;28;20357;-62
2021/05/09 09:42:39;;;;;;;;;;;21.70;42.50;;;;;;5044503;28;20112;-65
2021/05/09 09:45:28;;;;;;;2.55;0.90;;;21.70;42.50;;;;;;5036941;28;19919;-65
2021/05/09 09:47:55;;;;;;;2.38;0.80;;;21.70;42.50;;;;;;5039290;28;20492;-63
2021/05/09 09:50:38;;;;;;;3.20;1.10;;;21.70;42.50;;;;;;5043335;28;20120;-62
2021/05/09 09:53:30;;;;;;;1.55;0.90;;;21.70;42.50;;;;;;5043375;28;20104;-64
2021/05/09 09:56:05;;;;;;;3.28;1.02;;;21.70;42.50;;;;;;5038832;28;20017;-62
2021/05/09 09:58:47;;;;;;;2.80;0.90;;;21.70;42.50;;;;;;5041710;28;20459;-61
2021/05/09 10:01:19;;;;;;;1.55;0.80;;;21.70;42.60;;;;;;5041633;28;20055;-61
2021/05/09 10:03:47;;;;;;;1.63;0.90;;;21.70;42.60;;;;;;5045639;28;20032;-63
2021/05/09 10:06:13;;;;;;;2.70;0.85;;;21.70;42.60;;;;;;5040485;28;20029;-63
2021/05/09 10:08:39;;;;;;;1.88;0.82;;;21.70;42.60;;;;;;5046282;28;20120;-62
2021/05/09 10:11:06;;;;;;;1.90;0.80;;;21.70;42.60;;;;;;5046331;28;20292;-66
2021/05/09 10:13:33;;;;;;;3.03;0.90;;;21.70;42.70;;;;;;5044613;28;20622;-63
2021/05/09 10:15:59;;;;;;;1.98;1.00;;;21.70;42.70;;;;;;5041169;28;20679;-63
2021/05/09 10:18:26;;;;;;;1.80;0.77;;;21.70;42.70;;;;;;5042207;28;20056;-62
2021/05/09 10:20:52;;;;;;;2.20;0.90;;;21.70;42.80;;;;;;5034417;28;20497;-62
2021/05/09 10:23:18;;;;;;;1.23;0.70;;;21.70;42.80;;;;;;5042924;28;20315;-61
2021/05/09 10:25:58;;;;;;;2.72;0.90;;;21.70;42.80;;;;;;5043555;28;20033;-63
2021/05/09 10:28:26;;;;;;;1.73;0.80;;;21.70;42.80;;;;;;5024612;28;20433;-63
2021/05/09 10:30:57;;;;;;;2.17;0.77;;;21.70;42.90;;;;;;5026741;28;20133;-62
2021/05/09 10:33:41;;;;;;;2.08;0.80;;;21.70;42.90;;;;;;5035972;28;20096;-65
2021/05/09 10:36:16;;;;;;;1.48;0.80;;;21.70;43.00;;;;;;5039695;28;20138;-64
2021/05/09 10:39:09;;;;;;;1.20;0.70;;;21.70;43.00;;;;;;5026477;28;20057;-62
2021/05/09 10:41:54;;;;;;;1.50;0.80;;;21.70;43.00;;;;;;5040458;28;20532;-63
2021/05/09 10:44:38;;;;;;;2.30;0.80;;;21.70;43.10;;;;;;5033343;28;20029;-63
2021/05/09 10:47:05;;;;;;;1.60;0.88;;;21.70;43.20;;;;;;5040484;28;20083;-62
2021/05/09 10:49:31;;;;;;;3.05;0.95;;;21.80;43.30;;;;;;5033965;28;20064;-63
2021/05/09 10:51:57;;;;;;;1.83;0.90;;;21.80;43.30;;;;;;5041852;28;20100;-61
2021/05/09 10:54:24;;;;;;;1.75;0.80;;;21.80;43.30;;;;;;5042468;28;20021;-63
2021/05/09 10:56:52;;;;;;;2.50;1.00;;;21.80;43.10;;;;;;5044007;28;20029;-62
2021/05/09 10:59:18;;;;;;;3.33;0.90;;;21.80;42.90;;;;;;5029581;28;20040;-63
2021/05/09 11:01:43;;;;;;;1.73;0.73;;;21.80;42.80;;;;;;5031616;28;20045;-61
2021/05/09 11:04:12;;;;;;;2.33;0.80;;;21.80;42.80;;;;;;5043712;28;20238;-65
2021/05/09 11:06:42;;;;;;;2.33;0.90;;;21.80;42.80;;;;;;5036209;28;20131;-62
2021/05/09 11:09:28;;;;;;;;;;;21.80;42.80;;;;;;5035980;28;20100;-62
2021/05/09 11:11:56;;;;;;;1.35;0.73;;;21.80;42.90;;;;;;5043280;28;19917;-60
2021/05/09 11:14:21;;;;;;;1.77;0.70;;;21.80;43.10;;;;;;5034759;28;20025;-62
2021/05/09 11:17:06;;;;;;;1.10;0.70;;;21.80;43.10;;;;;;5034262;28;20039;-60
2021/05/09 11:19:44;;;;;;;1.13;0.80;;;21.80;43.10;;;;;;5039090;28;20044;-59
2021/05/09 11:22:11;;;;;;;1.35;0.85;;;21.90;43.20;;;;;;5041660;28;20029;-60
2021/05/09 11:24:39;;;;;;;1.88;0.73;;;21.80;43.10;;;;;;5038998;28;20414;-63
2021/05/09 11:27:05;;;;;;;1.98;0.80;;;21.80;43.10;;;;;;5041525;28;20380;-62
2021/05/09 11:29:31;;;;;;;1.67;0.70;;;21.80;43.20;;;;;;5046207;28;20029;-60
2021/05/09 11:32:11;;;;;;;1.10;0.70;;;21.90;43.20;;;;;;5042168;28;20048;-61
2021/05/09 11:34:37;;;;;;;1.60;1.00;;;21.80;43.10;;;;;;5033073;28;20796;-63
2021/05/09 11:37:03;;;;;;;1.70;0.80;;;21.90;43.30;;;;;;5037050;28;20209;-63
2021/05/09 11:39:34;;;;;;;1.10;0.77;;;21.90;43.20;;;;;;5032451;28;20470;-61
2021/05/09 11:42:15;;;;;;;1.50;0.82;;;21.90;43.30;;;;;;5044610;28;20313;-63
2021/05/09 11:44:52;;;;;;;1.85;0.90;;;21.80;43.20;;;;;;5023312;28;20017;-60
2021/05/09 11:47:21;;;;;;;3.20;0.80;;;21.90;43.10;;;;;;5033403;28;20044;-60
2021/05/09 11:49:48;;;;;;;1.00;0.75;;;21.90;43.20;;;;;;5033355;28;20030;-60
2021/05/09 11:52:19;;;;;;;1.55;0.80;;;21.90;43.10;;;;;;5046491;28;20118;-60
2021/05/09 11:54:53;;;;;;;1.42;0.65;;;21.90;43.20;;;;;;5032436;28;20036;-61
2021/05/09 11:57:21;;;;;;;0.98;0.70;;;22.00;43.20;;;;;;5036461;28;20402;-63
2021/05/09 11:59:48;;;;;;;2.37;0.70;;;21.90;43.30;;;;;;5036121;28;20095;-58
2021/05/09 12:02:18;;;;;;;2.28;0.80;;;22.00;43.30;;;;;;5039649;28;20068;-61
2021/05/09 12:04:49;;;;;;;1.40;0.70;;;22.00;43.30;;;;;;5042352;28;20029;-60
2021/05/09 12:07:18;;;;;;;0.80;0.60;;;22.00;43.50;;;;;;5044870;28;20049;-62
2021/05/09 12:09:49;;;;;;;0.90;0.70;;;22.00;43.40;;;;;;5036915;28;20036;-61
2021/05/09 12:12:17;;;;;;;0.75;0.63;;;22.00;44.00;;;;;;5047896;28;20049;-61
2021/05/09 12:14:44;;;;;;;2.07;0.70;;;22.00;43.50;;;;;;5035982;28;20053;-60
2021/05/09 12:17:18;;;;;;;0.90;0.68;;;22.00;43.50;;;;;;5035363;28;20272;-61
2021/05/09 12:19:44;;;;;;;1.00;0.70;;;22.00;43.40;;;;;;5038145;28;20239;-61
2021/05/09 12:22:10;;;;;;;1.48;0.70;;;22.00;43.60;;;;;;5040252;28;20525;-60
2021/05/09 12:24:49;;;;;;;1.00;0.70;;;22.00;43.50;;;;;;5045764;28;20033;-63
2021/05/09 12:27:15;;;;;;;0.73;0.60;;;22.00;43.60;;;;;;5044838;28;20636;-60
2021/05/09 12:29:45;;;;;;;0.77;0.60;;;22.00;43.70;;;;;;5044228;28;20037;-62
2021/05/09 12:32:18;;;;;;;1.00;0.70;;;22.00;43.80;;;;;;5047740;28;20033;-60
2021/05/09 12:35:03;;;;;;;0.60;0.60;;;22.10;43.90;;;;;;5047668;28;20033;-61
2021/05/09 12:37:30;;;;;;;0.63;0.60;;;22.10;44.00;;;;;;5037910;28;20384;-60
2021/05/09 12:40:21;;;;;;;1.00;0.70;;;22.00;44.00;;;;;;5046841;28;20020;-60
2021/05/09 12:42:53;;;;;;;1.02;0.68;;;22.00;43.90;;;;;;5043873;28;20032;-60
2021/05/09 12:45:30;;;;;;;1.10;0.70;;;22.10;44.00;;;;;;5040197;28;20089;-62
2021/05/09 12:48:16;;;;;;;0.77;0.68;;;22.10;44.10;;;;;;5030823;28;20041;-61
2021/05/09 12:50:50;;;;;;;0.73;0.70;;;22.10;44.10;;;;;;5034721;28;20143;-63
2021/05/09 12:53:17;;;;;;;0.98;0.63;;;22.10;44.10;;;;;;5028497;28;20013;-59